sensor_id;sensor_type;location;lat;lon;timestamp;pressure;altitude;pressure_sealevel;temperature;humidity
28004;BME280;15330;51.234;6.754;2023-09-08T00:00:40;101147.63;;;23.22;59.84
28004;BME280;15330;51.234;6.754;2023-09-08T00:03:05;101147.16;;;23.25;59.23
28004;BME280;15330;51.234;6.754;2023-09-08T00:05:31;101146.78;;;23.22;59.09
28004;BME280;15330;51.234;6.754;2023-09-08T00:07:56;101146.56;;;23.12;58.62
28004;BME280;15330;51.234;6.754;2023-09-08T00:10:21;101144.44;;;23.14;59.79
28004;BME280;15330;51.234;6.754;2023-09-08T00:12:47;101137.06;;;23.02;59.40
28004;BME280;15330;51.234;6.754;2023-09-08T00:15:12;101135.75;;;23.05;59.29
28004;BME280;15330;51.234;6.754;2023-09-08T00:17:41;101137.53;;;22.88;59.51
28004;BME280;15330;51.234;6.754;2023-09-08T00:20:08;101132.75;;;22.72;60.05
28004;BME280;15330;51.234;6.754;2023-09-08T00:22:37;101137.22;;;22.54;60.49
28004;BME280;15330;51.234;6.754;2023-09-08T00:25:03;101135.69;;;22.58;60.61
28004;BME280;15330;51.234;6.754;2023-09-08T00:27:30;101136.03;;;22.50;60.89
28004;BME280;15330;51.234;6.754;2023-09-08T00:29:56;101133.34;;;22.62;60.22
28004;BME280;15330;51.234;6.754;2023-09-08T00:32:22;101135.44;;;22.48;60.77
28004;BME280;15330;51.234;6.754;2023-09-08T00:34:47;101139.09;;;22.42;60.79
28004;BME280;15330;51.234;6.754;2023-09-08T00:37:13;101135.41;;;22.37;60.69
28004;BME280;15330;51.234;6.754;2023-09-08T00:39:38;101137.06;;;22.38;60.78
28004;BME280;15330;51.234;6.754;2023-09-08T00:42:04;101138.53;;;22.22;61.25
28004;BME280;15330;51.234;6.754;2023-09-08T00:44:30;101132.78;;;22.30;61.46
28004;BME280;15330;51.234;6.754;2023-09-08T00:46:55;101126.38;;;22.36;61.43
28004;BME280;15330;51.234;6.754;2023-09-08T00:49:21;101134.91;;;22.28;62.01
28004;BME280;15330;51.234;6.754;2023-09-08T00:51:47;101139.91;;;22.31;62.32
28004;BME280;15330;51.234;6.754;2023-09-08T00:54:12;101134.06;;;21.97;62.97
28004;BME280;15330;51.234;6.754;2023-09-08T00:56:38;101129.25;;;22.00;63.22
28004;BME280;15330;51.234;6.754;2023-09-08T00:59:04;101122.50;;;21.84;63.60
28004;BME280;15330;51.234;6.754;2023-09-08T01:01:31;101124.53;;;22.07;63.23
28004;BME280;15330;51.234;6.754;2023-09-08T01:03:56;101119.41;;;21.99;63.67
28004;BME280;15330;51.234;6.754;2023-09-08T01:06:22;101122.63;;;22.07;63.39
28004;BME280;15330;51.234;6.754;2023-09-08T01:08:49;101123.38;;;21.96;64.49
28004;BME280;15330;51.234;6.754;2023-09-08T01:11:17;101120.81;;;22.01;64.43
28004;BME280;15330;51.234;6.754;2023-09-08T01:13:44;101121.50;;;21.96;64.86
28004;BME280;15330;51.234;6.754;2023-09-08T01:16:09;101118.16;;;21.94;64.80
28004;BME280;15330;51.234;6.754;2023-09-08T01:18:35;101128.94;;;21.89;65.30
28004;BME280;15330;51.234;6.754;2023-09-08T01:21:06;101126.19;;;21.89;65.67
28004;BME280;15330;51.234;6.754;2023-09-08T01:26:31;101126.31;;;21.65;66.14
28004;BME280;15330;51.234;6.754;2023-09-08T01:29:01;101126.16;;;21.41;66.61
28004;BME280;15330;51.234;6.754;2023-09-08T01:31:28;101122.44;;;21.54;65.88
28004;BME280;15330;51.234;6.754;2023-09-08T01:33:54;101123.25;;;21.73;65.55
28004;BME280;15330;51.234;6.754;2023-09-08T01:36:20;101123.22;;;21.43;66.47
28004;BME280;15330;51.234;6.754;2023-09-08T01:38:46;101119.28;;;21.57;66.25
28004;BME280;15330;51.234;6.754;2023-09-08T01:41:11;101116.34;;;21.58;66.26
28004;BME280;15330;51.234;6.754;2023-09-08T01:43:36;101113.31;;;21.48;66.67
28004;BME280;15330;51.234;6.754;2023-09-08T01:46:02;101114.31;;;21.36;66.98
28004;BME280;15330;51.234;6.754;2023-09-08T01:48:27;101119.72;;;21.17;68.13
28004;BME280;15330;51.234;6.754;2023-09-08T01:50:52;101108.22;;;21.15;68.21
28004;BME280;15330;51.234;6.754;2023-09-08T01:53:18;101115.94;;;21.18;68.18
28004;BME280;15330;51.234;6.754;2023-09-08T01:55:43;101112.72;;;21.46;67.30
28004;BME280;15330;51.234;6.754;2023-09-08T01:58:08;101120.53;;;21.18;68.02
28004;BME280;15330;51.234;6.754;2023-09-08T02:00:34;101116.25;;;21.29;67.93
28004;BME280;15330;51.234;6.754;2023-09-08T02:02:59;101118.81;;;21.23;67.75
28004;BME280;15330;51.234;6.754;2023-09-08T02:05:24;101113.16;;;21.25;68.02
28004;BME280;15330;51.234;6.754;2023-09-08T02:07:51;101110.28;;;21.20;68.23
28004;BME280;15330;51.234;6.754;2023-09-08T02:10:17;101105.81;;;21.26;68.13
28004;BME280;15330;51.234;6.754;2023-09-08T02:12:43;101106.72;;;21.19;68.35
28004;BME280;15330;51.234;6.754;2023-09-08T02:15:08;101099.81;;;21.17;68.25
28004;BME280;15330;51.234;6.754;2023-09-08T02:17:36;101112.13;;;21.01;68.92
28004;BME280;15330;51.234;6.754;2023-09-08T02:20:01;101115.22;;;21.05;69.04
28004;BME280;15330;51.234;6.754;2023-09-08T02:22:27;101121.19;;;21.13;68.91
28004;BME280;15330;51.234;6.754;2023-09-08T02:24:53;101118.56;;;21.07;68.87
28004;BME280;15330;51.234;6.754;2023-09-08T02:27:18;101116.06;;;21.05;69.01
28004;BME280;15330;51.234;6.754;2023-09-08T02:29:44;101113.47;;;21.10;68.97
28004;BME280;15330;51.234;6.754;2023-09-08T02:32:09;101108.97;;;20.79;70.17
28004;BME280;15330;51.234;6.754;2023-09-08T02:34:35;101106.22;;;20.86;69.88
28004;BME280;15330;51.234;6.754;2023-09-08T02:37:02;101118.69;;;20.94;69.68
28004;BME280;15330;51.234;6.754;2023-09-08T02:39:27;101117.00;;;20.93;70.20
28004;BME280;15330;51.234;6.754;2023-09-08T02:41:53;101109.47;;;20.95;70.00
28004;BME280;15330;51.234;6.754;2023-09-08T02:44:20;101114.72;;;20.89;70.18
28004;BME280;15330;51.234;6.754;2023-09-08T02:46:47;101108.53;;;20.82;70.26
28004;BME280;15330;51.234;6.754;2023-09-08T02:49:12;101091.94;;;20.91;69.74
28004;BME280;15330;51.234;6.754;2023-09-08T02:51:38;101107.63;;;20.88;70.35
28004;BME280;15330;51.234;6.754;2023-09-08T02:54:03;101112.84;;;20.90;70.47
28004;BME280;15330;51.234;6.754;2023-09-08T02:56:28;101101.59;;;20.62;71.62
28004;BME280;15330;51.234;6.754;2023-09-08T02:58:54;101107.81;;;20.44;72.70
28004;BME280;15330;51.234;6.754;2023-09-08T03:01:19;101106.22;;;20.61;71.99
28004;BME280;15330;51.234;6.754;2023-09-08T03:03:48;101102.69;;;20.79;70.65
28004;BME280;15330;51.234;6.754;2023-09-08T03:06:14;101104.72;;;20.65;71.40
28004;BME280;15330;51.234;6.754;2023-09-08T03:08:40;101116.19;;;20.67;71.59
28004;BME280;15330;51.234;6.754;2023-09-08T03:11:07;101108.31;;;20.59;72.26
28004;BME280;15330;51.234;6.754;2023-09-08T03:13:34;101105.88;;;20.76;71.72
28004;BME280;15330;51.234;6.754;2023-09-08T03:16:06;101110.31;;;20.70;72.10
28004;BME280;15330;51.234;6.754;2023-09-08T03:18:33;101101.38;;;20.63;72.32
28004;BME280;15330;51.234;6.754;2023-09-08T03:20:59;101101.28;;;20.76;71.85
28004;BME280;15330;51.234;6.754;2023-09-08T03:23:25;101095.50;;;20.41;73.43
28004;BME280;15330;51.234;6.754;2023-09-08T03:25:51;101101.56;;;20.43;73.68
28004;BME280;15330;51.234;6.754;2023-09-08T03:28:16;101092.34;;;20.44;73.89
28004;BME280;15330;51.234;6.754;2023-09-08T03:30:41;101097.22;;;20.61;72.76
28004;BME280;15330;51.234;6.754;2023-09-08T03:33:07;101091.56;;;20.37;74.01
28004;BME280;15330;51.234;6.754;2023-09-08T03:35:32;101093.84;;;20.40;74.43
28004;BME280;15330;51.234;6.754;2023-09-08T03:37:57;101090.41;;;20.51;74.06
28004;BME280;15330;51.234;6.754;2023-09-08T03:40:24;101082.78;;;20.35;74.28
28004;BME280;15330;51.234;6.754;2023-09-08T03:42:49;101083.13;;;20.45;73.97
28004;BME280;15330;51.234;6.754;2023-09-08T03:45:14;101088.03;;;20.30;74.45
28004;BME280;15330;51.234;6.754;2023-09-08T03:47:40;101080.94;;;20.29;74.73
28004;BME280;15330;51.234;6.754;2023-09-08T03:50:06;101080.72;;;20.31;74.49
28004;BME280;15330;51.234;6.754;2023-09-08T03:52:31;101084.44;;;20.36;73.96
28004;BME280;15330;51.234;6.754;2023-09-08T03:54:57;101072.84;;;20.23;74.49
28004;BME280;15330;51.234;6.754;2023-09-08T03:57:23;101084.91;;;20.27;74.60
28004;BME280;15330;51.234;6.754;2023-09-08T03:59:48;101082.03;;;20.22;74.87
28004;BME280;15330;51.234;6.754;2023-09-08T04:02:14;101089.63;;;20.13;74.96
28004;BME280;15330;51.234;6.754;2023-09-08T04:04:39;101083.34;;;20.12;75.00
28004;BME280;15330;51.234;6.754;2023-09-08T04:07:05;101087.91;;;20.19;74.73
28004;BME280;15330;51.234;6.754;2023-09-08T04:09:30;101096.72;;;20.14;74.95
28004;BME280;15330;51.234;6.754;2023-09-08T04:11:57;101090.41;;;20.20;74.90
28004;BME280;15330;51.234;6.754;2023-09-08T04:14:22;101093.34;;;20.19;74.66
28004;BME280;15330;51.234;6.754;2023-09-08T04:16:52;101094.09;;;20.01;75.77
28004;BME280;15330;51.234;6.754;2023-09-08T04:19:17;101082.53;;;20.12;74.93
28004;BME280;15330;51.234;6.754;2023-09-08T04:21:43;101095.13;;;20.00;75.38
28004;BME280;15330;51.234;6.754;2023-09-08T04:24:08;101092.56;;;20.05;75.57
28004;BME280;15330;51.234;6.754;2023-09-08T04:26:35;101085.66;;;20.09;75.56
28004;BME280;15330;51.234;6.754;2023-09-08T04:29:01;101090.63;;;20.19;75.05
28004;BME280;15330;51.234;6.754;2023-09-08T04:31:27;101097.38;;;20.09;75.09
28004;BME280;15330;51.234;6.754;2023-09-08T04:33:53;101085.72;;;20.02;75.82
28004;BME280;15330;51.234;6.754;2023-09-08T04:36:19;101088.78;;;20.12;75.69
28004;BME280;15330;51.234;6.754;2023-09-08T04:38:44;101092.81;;;20.03;75.75
28004;BME280;15330;51.234;6.754;2023-09-08T04:41:10;101095.13;;;20.00;75.94
28004;BME280;15330;51.234;6.754;2023-09-08T04:43:35;101094.34;;;19.86;76.75
28004;BME280;15330;51.234;6.754;2023-09-08T04:46:00;101099.03;;;19.72;77.08
28004;BME280;15330;51.234;6.754;2023-09-08T04:48:28;101098.06;;;19.98;76.21
28004;BME280;15330;51.234;6.754;2023-09-08T04:50:53;101098.69;;;20.00;75.85
28004;BME280;15330;51.234;6.754;2023-09-08T04:53:18;101101.97;;;20.09;75.37
28004;BME280;15330;51.234;6.754;2023-09-08T04:55:44;101097.16;;;20.11;75.47
28004;BME280;15330;51.234;6.754;2023-09-08T04:58:09;101100.41;;;19.88;76.32
28004;BME280;15330;51.234;6.754;2023-09-08T05:00:34;101099.47;;;19.63;77.29
28004;BME280;15330;51.234;6.754;2023-09-08T05:03:02;101099.34;;;19.51;78.02
28004;BME280;15330;51.234;6.754;2023-09-08T05:05:28;101086.63;;;19.52;77.92
28004;BME280;15330;51.234;6.754;2023-09-08T05:07:53;101095.72;;;19.70;77.51
28004;BME280;15330;51.234;6.754;2023-09-08T05:10:22;101097.22;;;19.60;77.80
28004;BME280;15330;51.234;6.754;2023-09-08T05:12:47;101093.31;;;19.87;76.77
28004;BME280;15330;51.234;6.754;2023-09-08T05:15:13;101089.38;;;20.14;74.87
28004;BME280;15330;51.234;6.754;2023-09-08T05:17:40;101096.13;;;20.05;75.00
28004;BME280;15330;51.234;6.754;2023-09-08T05:20:06;101095.22;;;20.49;73.44
28004;BME280;15330;51.234;6.754;2023-09-08T05:22:32;101107.31;;;20.54;73.17
28004;BME280;15330;51.234;6.754;2023-09-08T05:24:58;101099.16;;;20.22;74.33
28004;BME280;15330;51.234;6.754;2023-09-08T05:27:23;101103.69;;;19.97;74.97
28004;BME280;15330;51.234;6.754;2023-09-08T05:29:49;101109.19;;;20.22;74.16
28004;BME280;15330;51.234;6.754;2023-09-08T05:32:14;101103.78;;;20.15;74.52
28004;BME280;15330;51.234;6.754;2023-09-08T05:34:40;101105.22;;;20.56;72.67
28004;BME280;15330;51.234;6.754;2023-09-08T05:37:05;101097.03;;;21.05;70.08
28004;BME280;15330;51.234;6.754;2023-09-08T05:39:30;101103.94;;;21.44;69.38
28004;BME280;15330;51.234;6.754;2023-09-08T05:41:56;101097.69;;;21.74;67.12
28004;BME280;15330;51.234;6.754;2023-09-08T05:44:21;101103.09;;;21.26;68.67
28004;BME280;15330;51.234;6.754;2023-09-08T05:46:47;101110.44;;;22.10;66.06
28004;BME280;15330;51.234;6.754;2023-09-08T05:49:12;101114.25;;;21.90;65.29
28004;BME280;15330;51.234;6.754;2023-09-08T05:51:39;101109.59;;;22.09;64.42
28004;BME280;15330;51.234;6.754;2023-09-08T05:54:04;101114.19;;;22.39;63.29
28004;BME280;15330;51.234;6.754;2023-09-08T05:56:31;101111.75;;;23.42;60.79
28004;BME280;15330;51.234;6.754;2023-09-08T05:58:57;101116.38;;;23.41;60.00
28004;BME280;15330;51.234;6.754;2023-09-08T06:01:23;101106.31;;;23.82;57.57
28004;BME280;15330;51.234;6.754;2023-09-08T06:03:49;101120.97;;;24.04;56.79
28004;BME280;15330;51.234;6.754;2023-09-08T06:06:14;101123.75;;;23.18;58.69
28004;BME280;15330;51.234;6.754;2023-09-08T06:08:40;101119.41;;;24.37;55.74
28004;BME280;15330;51.234;6.754;2023-09-08T06:11:05;101122.38;;;24.52;55.45
28004;BME280;15330;51.234;6.754;2023-09-08T06:13:31;101122.84;;;25.33;52.80
28004;BME280;15330;51.234;6.754;2023-09-08T06:15:56;101125.88;;;25.75;52.30
28004;BME280;15330;51.234;6.754;2023-09-08T06:18:21;101119.94;;;25.61;51.93
28004;BME280;15330;51.234;6.754;2023-09-08T06:20:47;101109.13;;;25.98;51.20
28004;BME280;15330;51.234;6.754;2023-09-08T06:23:13;101118.50;;;26.02;49.40
28004;BME280;15330;51.234;6.754;2023-09-08T06:25:39;101123.25;;;26.65;49.42
28004;BME280;15330;51.234;6.754;2023-09-08T06:28:04;101128.09;;;27.27;48.66
28004;BME280;15330;51.234;6.754;2023-09-08T06:30:30;101130.53;;;27.24;46.93
28004;BME280;15330;51.234;6.754;2023-09-08T06:32:55;101129.53;;;27.45;47.47
28004;BME280;15330;51.234;6.754;2023-09-08T06:35:21;101134.78;;;27.52;46.39
28004;BME280;15330;51.234;6.754;2023-09-08T06:37:46;101133.31;;;27.29;46.59
28004;BME280;15330;51.234;6.754;2023-09-08T06:40:12;101128.63;;;27.71;46.97
28004;BME280;15330;51.234;6.754;2023-09-08T06:42:37;101138.41;;;28.40;45.11
28004;BME280;15330;51.234;6.754;2023-09-08T06:45:02;101136.22;;;28.62;44.22
28004;BME280;15330;51.234;6.754;2023-09-08T06:47:28;101129.59;;;28.38;44.46
28004;BME280;15330;51.234;6.754;2023-09-08T06:49:53;101142.38;;;27.82;44.24
28004;BME280;15330;51.234;6.754;2023-09-08T06:52:19;101131.78;;;28.36;44.77
28004;BME280;15330;51.234;6.754;2023-09-08T06:54:44;101134.03;;;28.59;43.53
28004;BME280;15330;51.234;6.754;2023-09-08T06:57:13;101140.94;;;28.82;43.77
28004;BME280;15330;51.234;6.754;2023-09-08T06:59:38;101127.84;;;27.91;43.38
28004;BME280;15330;51.234;6.754;2023-09-08T07:02:04;101129.13;;;27.16;44.98
28004;BME280;15330;51.234;6.754;2023-09-08T07:04:29;101129.47;;;27.87;44.32
28004;BME280;15330;51.234;6.754;2023-09-08T07:06:55;101135.81;;;27.88;43.83
28004;BME280;15330;51.234;6.754;2023-09-08T07:09:21;101139.72;;;26.65;44.22
28004;BME280;15330;51.234;6.754;2023-09-08T07:11:46;101122.72;;;25.66;46.62
28004;BME280;15330;51.234;6.754;2023-09-08T07:14:12;101134.66;;;26.89;44.75
28004;BME280;15330;51.234;6.754;2023-09-08T07:16:37;101112.00;;;26.67;44.89
28004;BME280;15330;51.234;6.754;2023-09-08T07:19:02;101138.31;;;26.95;44.57
28004;BME280;15330;51.234;6.754;2023-09-08T07:21:28;101140.38;;;27.15;44.52
28004;BME280;15330;51.234;6.754;2023-09-08T07:23:53;101146.19;;;27.75;42.74
28004;BME280;15330;51.234;6.754;2023-09-08T07:26:19;101128.81;;;28.63;42.33
28004;BME280;15330;51.234;6.754;2023-09-08T07:28:45;101138.13;;;29.92;40.11
28004;BME280;15330;51.234;6.754;2023-09-08T07:31:10;101135.13;;;28.48;41.49
28004;BME280;15330;51.234;6.754;2023-09-08T07:33:35;101144.19;;;28.48;40.71
28004;BME280;15330;51.234;6.754;2023-09-08T07:36:06;101152.84;;;29.72;39.40
28004;BME280;15330;51.234;6.754;2023-09-08T07:38:32;101144.78;;;29.06;39.35
28004;BME280;15330;51.234;6.754;2023-09-08T07:40:58;101153.41;;;31.30;37.36
28004;BME280;15330;51.234;6.754;2023-09-08T07:43:25;101146.16;;;31.06;37.17
28004;BME280;15330;51.234;6.754;2023-09-08T07:45:51;101161.41;;;32.22;35.62
28004;BME280;15330;51.234;6.754;2023-09-08T07:48:16;101149.50;;;31.31;36.38
28004;BME280;15330;51.234;6.754;2023-09-08T07:50:42;101150.41;;;32.87;34.85
28004;BME280;15330;51.234;6.754;2023-09-08T07:53:07;101153.22;;;32.31;35.08
28004;BME280;15330;51.234;6.754;2023-09-08T07:55:33;101147.22;;;31.15;36.41
28004;BME280;15330;51.234;6.754;2023-09-08T07:57:58;101147.50;;;32.27;34.96
28004;BME280;15330;51.234;6.754;2023-09-08T08:00:24;101146.44;;;31.81;35.03
28004;BME280;15330;51.234;6.754;2023-09-08T08:02:53;101138.44;;;30.74;36.75
28004;BME280;15330;51.234;6.754;2023-09-08T08:05:19;101140.09;;;31.99;34.40
28004;BME280;15330;51.234;6.754;2023-09-08T08:07:45;101137.34;;;29.86;38.14
28004;BME280;15330;51.234;6.754;2023-09-08T08:10:11;101143.47;;;31.53;35.67
28004;BME280;15330;51.234;6.754;2023-09-08T08:12:37;101139.22;;;31.37;35.29
28004;BME280;15330;51.234;6.754;2023-09-08T08:15:03;101135.94;;;32.01;34.77
28004;BME280;15330;51.234;6.754;2023-09-08T08:17:30;101131.84;;;32.36;33.61
28004;BME280;15330;51.234;6.754;2023-09-08T08:19:56;101132.22;;;33.41;32.69
28004;BME280;15330;51.234;6.754;2023-09-08T08:22:24;101133.56;;;34.20;31.60
28004;BME280;15330;51.234;6.754;2023-09-08T08:24:49;101130.56;;;33.67;32.27
28004;BME280;15330;51.234;6.754;2023-09-08T08:27:15;101126.38;;;32.64;32.95
28004;BME280;15330;51.234;6.754;2023-09-08T08:29:40;101148.47;;;36.01;28.80
28004;BME280;15330;51.234;6.754;2023-09-08T08:32:05;101138.56;;;36.99;28.08
28004;BME280;15330;51.234;6.754;2023-09-08T08:34:31;101140.94;;;36.45;27.69
28004;BME280;15330;51.234;6.754;2023-09-08T08:36:56;101149.09;;;35.81;28.03
28004;BME280;15330;51.234;6.754;2023-09-08T08:39:22;101145.31;;;35.86;27.41
28004;BME280;15330;51.234;6.754;2023-09-08T08:41:47;101144.00;;;38.42;24.90
28004;BME280;15330;51.234;6.754;2023-09-08T08:44:13;101156.66;;;39.75;24.18
28004;BME280;15330;51.234;6.754;2023-09-08T08:46:41;101148.03;;;40.20;23.65
28004;BME280;15330;51.234;6.754;2023-09-08T08:49:07;101143.72;;;42.62;21.20
28004;BME280;15330;51.234;6.754;2023-09-08T08:51:34;101154.50;;;41.87;22.01
28004;BME280;15330;51.234;6.754;2023-09-08T08:54:01;101156.03;;;43.42;20.27
28004;BME280;15330;51.234;6.754;2023-09-08T08:56:30;101155.09;;;42.11;21.17
28004;BME280;15330;51.234;6.754;2023-09-08T08:58:57;101150.38;;;39.66;23.04
28004;BME280;15330;51.234;6.754;2023-09-08T09:01:24;101141.81;;;41.58;21.68
28004;BME280;15330;51.234;6.754;2023-09-08T09:03:51;101159.06;;;43.30;20.52
28004;BME280;15330;51.234;6.754;2023-09-08T09:06:16;101151.69;;;43.71;19.67
28004;BME280;15330;51.234;6.754;2023-09-08T09:08:43;101147.00;;;42.45;20.48
28004;BME280;15330;51.234;6.754;2023-09-08T09:11:10;101144.84;;;39.21;23.33
28004;BME280;15330;51.234;6.754;2023-09-08T09:13:35;101142.53;;;38.78;24.07
28004;BME280;15330;51.234;6.754;2023-09-08T09:16:04;101140.78;;;38.85;23.73
28004;BME280;15330;51.234;6.754;2023-09-08T09:18:33;101136.63;;;36.91;26.18
28004;BME280;15330;51.234;6.754;2023-09-08T09:21:00;101138.56;;;37.45;25.65
28004;BME280;15330;51.234;6.754;2023-09-08T09:23:35;101146.16;;;36.03;27.25
28004;BME280;15330;51.234;6.754;2023-09-08T09:26:02;101139.56;;;33.18;30.80
28004;BME280;15330;51.234;6.754;2023-09-08T09:28:31;101130.06;;;32.78;32.04
28004;BME280;15330;51.234;6.754;2023-09-08T09:30:56;101130.63;;;33.07;31.95
28004;BME280;15330;51.234;6.754;2023-09-08T09:33:22;101138.50;;;34.23;31.02
28004;BME280;15330;51.234;6.754;2023-09-08T09:35:51;101135.75;;;32.68;32.28
28004;BME280;15330;51.234;6.754;2023-09-08T09:38:18;101138.97;;;31.57;34.56
28004;BME280;15330;51.234;6.754;2023-09-08T09:40:47;101121.22;;;32.76;33.14
28004;BME280;15330;51.234;6.754;2023-09-08T09:43:14;101119.38;;;32.53;33.80
28004;BME280;15330;51.234;6.754;2023-09-08T09:45:42;101119.72;;;32.32;33.43
28004;BME280;15330;51.234;6.754;2023-09-08T09:48:09;101128.72;;;31.58;34.55
28004;BME280;15330;51.234;6.754;2023-09-08T09:50:39;101126.09;;;32.98;33.32
28004;BME280;15330;51.234;6.754;2023-09-08T09:53:15;101121.03;;;32.86;33.27
28004;BME280;15330;51.234;6.754;2023-09-08T09:55:41;101116.88;;;32.70;33.91
28004;BME280;15330;51.234;6.754;2023-09-08T09:58:08;101121.97;;;31.69;35.02
28004;BME280;15330;51.234;6.754;2023-09-08T10:00:36;101121.78;;;31.84;35.28
28004;BME280;15330;51.234;6.754;2023-09-08T10:03:03;101124.03;;;32.01;34.74
28004;BME280;15330;51.234;6.754;2023-09-08T10:08:01;101117.94;;;30.46;36.80
28004;BME280;15330;51.234;6.754;2023-09-08T10:10:27;101121.03;;;31.31;35.86
28004;BME280;15330;51.234;6.754;2023-09-08T10:12:55;101121.88;;;31.31;36.21
28004;BME280;15330;51.234;6.754;2023-09-08T10:15:23;101112.97;;;32.20;34.76
28004;BME280;15330;51.234;6.754;2023-09-08T10:17:54;101111.94;;;31.97;35.29
28004;BME280;15330;51.234;6.754;2023-09-08T10:20:25;101118.91;;;31.70;35.42
28004;BME280;15330;51.234;6.754;2023-09-08T10:23:12;101117.22;;;31.51;35.30
28004;BME280;15330;51.234;6.754;2023-09-08T10:25:43;101113.00;;;31.77;35.67
28004;BME280;15330;51.234;6.754;2023-09-08T10:28:09;101110.47;;;32.56;34.65
28004;BME280;15330;51.234;6.754;2023-09-08T10:30:35;101110.81;;;32.35;34.87
28004;BME280;15330;51.234;6.754;2023-09-08T10:33:01;101108.47;;;31.86;35.06
28004;BME280;15330;51.234;6.754;2023-09-08T10:35:28;101112.38;;;31.85;35.72
28004;BME280;15330;51.234;6.754;2023-09-08T10:40:51;101111.59;;;31.98;35.43
28004;BME280;15330;51.234;6.754;2023-09-08T10:43:37;101105.28;;;31.31;36.07
28004;BME280;15330;51.234;6.754;2023-09-08T10:46:08;101112.28;;;31.24;36.22
28004;BME280;15330;51.234;6.754;2023-09-08T10:48:43;101121.00;;;31.07;36.45
28004;BME280;15330;51.234;6.754;2023-09-08T10:51:13;101110.84;;;31.50;36.18
28004;BME280;15330;51.234;6.754;2023-09-08T10:53:39;101113.84;;;31.78;35.77
28004;BME280;15330;51.234;6.754;2023-09-08T10:56:05;101114.97;;;31.53;36.41
28004;BME280;15330;51.234;6.754;2023-09-08T10:58:34;101118.28;;;31.55;35.58
28004;BME280;15330;51.234;6.754;2023-09-08T11:01:02;101114.53;;;31.46;36.39
28004;BME280;15330;51.234;6.754;2023-09-08T11:06:05;101110.47;;;32.56;34.15
28004;BME280;15330;51.234;6.754;2023-09-08T11:08:32;101111.69;;;32.31;34.87
28004;BME280;15330;51.234;6.754;2023-09-08T11:10:58;101111.59;;;31.98;35.11
28004;BME280;15330;51.234;6.754;2023-09-08T11:13:24;101114.63;;;32.21;35.21
28004;BME280;15330;51.234;6.754;2023-09-08T11:15:52;101111.34;;;32.19;35.58
28004;BME280;15330;51.234;6.754;2023-09-08T11:18:28;101113.81;;;33.17;33.85
28004;BME280;15330;51.234;6.754;2023-09-08T11:20:54;101114.88;;;32.57;34.18
28004;BME280;15330;51.234;6.754;2023-09-08T11:23:21;101109.22;;;33.27;33.26
28004;BME280;15330;51.234;6.754;2023-09-08T11:25:46;101100.84;;;33.68;34.46
28004;BME280;15330;51.234;6.754;2023-09-08T11:28:12;101107.34;;;33.36;33.24
28004;BME280;15330;51.234;6.754;2023-09-08T11:30:39;101100.13;;;32.94;33.76
28004;BME280;15330;51.234;6.754;2023-09-08T11:33:13;101104.94;;;32.56;34.81
28004;BME280;15330;51.234;6.754;2023-09-08T11:35:39;101094.34;;;32.76;34.18
28004;BME280;15330;51.234;6.754;2023-09-08T11:38:04;101097.78;;;33.01;34.61
28004;BME280;15330;51.234;6.754;2023-09-08T11:40:30;101094.13;;;32.73;34.92
28004;BME280;15330;51.234;6.754;2023-09-08T11:42:56;101101.22;;;32.79;33.81
28004;BME280;15330;51.234;6.754;2023-09-08T11:45:22;101097.16;;;33.04;33.57
28004;BME280;15330;51.234;6.754;2023-09-08T11:47:48;101098.94;;;33.27;33.92
28004;BME280;15330;51.234;6.754;2023-09-08T11:50:18;101089.84;;;32.48;34.74
28004;BME280;15330;51.234;6.754;2023-09-08T11:52:48;101091.94;;;32.00;35.79
28004;BME280;15330;51.234;6.754;2023-09-08T11:55:15;101089.03;;;31.72;36.41
28004;BME280;15330;51.234;6.754;2023-09-08T11:57:41;101102.41;;;31.84;35.97
28004;BME280;15330;51.234;6.754;2023-09-08T12:00:07;101096.72;;;32.13;35.43
28004;BME280;15330;51.234;6.754;2023-09-08T12:02:39;101093.16;;;31.51;35.79
28004;BME280;15330;51.234;6.754;2023-09-08T12:05:04;101085.75;;;32.27;35.28
28004;BME280;15330;51.234;6.754;2023-09-08T12:07:30;101089.41;;;32.03;35.28
28004;BME280;15330;51.234;6.754;2023-09-08T12:09:56;101088.44;;;31.94;35.53
28004;BME280;15330;51.234;6.754;2023-09-08T12:12:22;101079.91;;;31.72;36.20
28004;BME280;15330;51.234;6.754;2023-09-08T12:14:48;101085.09;;;31.55;36.47
28004;BME280;15330;51.234;6.754;2023-09-08T12:17:13;101069.34;;;32.12;35.72
28004;BME280;15330;51.234;6.754;2023-09-08T12:19:42;101068.09;;;32.23;35.64
28004;BME280;15330;51.234;6.754;2023-09-08T12:22:08;101073.69;;;31.80;35.40
28004;BME280;15330;51.234;6.754;2023-09-08T12:27:19;101084.69;;;31.85;36.15
28004;BME280;15330;51.234;6.754;2023-09-08T12:29:55;101068.56;;;31.50;36.56
28004;BME280;15330;51.234;6.754;2023-09-08T12:32:22;101075.00;;;31.21;36.58
28004;BME280;15330;51.234;6.754;2023-09-08T12:34:48;101074.94;;;30.97;37.26
28004;BME280;15330;51.234;6.754;2023-09-08T12:37:13;101052.31;;;31.24;37.86
28004;BME280;15330;51.234;6.754;2023-09-08T12:39:38;101055.66;;;32.20;35.64
28004;BME280;15330;51.234;6.754;2023-09-08T12:42:04;101055.34;;;31.23;37.01
28004;BME280;15330;51.234;6.754;2023-09-08T12:44:30;101060.81;;;31.89;36.01
28004;BME280;15330;51.234;6.754;2023-09-08T12:46:56;101049.75;;;32.27;36.50
28004;BME280;15330;51.234;6.754;2023-09-08T12:49:21;101046.53;;;32.52;35.50
28004;BME280;15330;51.234;6.754;2023-09-08T12:51:46;101031.19;;;31.52;36.73
28004;BME280;15330;51.234;6.754;2023-09-08T12:54:12;101059.41;;;32.10;36.16
28004;BME280;15330;51.234;6.754;2023-09-08T12:56:37;101054.44;;;32.45;35.68
28004;BME280;15330;51.234;6.754;2023-09-08T12:59:03;101059.69;;;33.20;35.40